Time;durP1;ratioP1;P1;durP2;ratioP2;P2;SDS_P1;SDS_P2;PMS_P1;PMS_P2;Temp;Humidity;BMP_temperature;BMP_pressure;BME280_temperature;BME280_humidity;BME280_pressure;Samples;Min_cycle;Max_cycle;Signal;HPM_P1;HPM_P2
2021/11/17 02:25:43;;;;;;;21.80;6.25;;;;;;;15.87;45.04;101960.16;4976696;28;20093;-80
2021/11/17 02:28:29;;;;;;;22.00;5.78;;;;;;;15.79;45.31;101963.69;4959377;28;20528;-79
2021/11/17 02:31:04;;;;;;;29.05;6.70;;;;;;;15.66;45.57;101968.19;4976628;28;20494;-79
2021/11/17 02:33:38;;;;;;;34.60;6.40;;;;;;;15.69;45.43;101966.72;4976475;28;20033;-80
2021/11/17 02:36:19;;;;;;;23.20;6.22;;;;;;;15.73;45.25;101967.72;4976391;28;20382;-80
2021/11/17 02:39:17;;;;;;;31.60;9.70;;;;;;;15.67;45.38;101969.81;4943537;28;20206;-80
2021/11/17 02:41:55;;;;;;;20.23;4.60;;;;;;;15.69;45.56;101966.72;4960818;28;20107;-79
2021/11/17 02:44:48;;;;;;;21.08;5.38;;;;;;;15.74;45.38;101964.66;4958932;28;20027;-80
2021/11/17 02:47:42;;;;;;;25.33;6.00;;;;;;;15.81;45.26;101962.25;4958968;28;20027;-79
2021/11/17 02:50:17;;;;;;;21.15;5.53;;;;;;;15.95;45.12;101959.38;4975970;28;20050;-79
2021/11/17 02:52:49;;;;;;;20.25;5.45;;;;;;;15.97;45.12;101972.84;4943050;28;20033;-79
2021/11/17 02:55:41;;;;;;;23.52;5.50;;;;;;;16.00;45.15;101967.47;4958816;28;20523;-80
2021/11/17 02:58:38;;;;;;;20.88;5.93;;;;;;;15.84;45.78;101971.81;4942847;28;20023;-79
2021/11/17 03:01:32;;;;;;;20.65;4.95;;;;;;;15.80;45.65;101977.16;4962307;28;20026;-80
2021/11/17 03:04:12;;;;;;;24.52;5.35;;;;;;;15.84;45.47;101979.25;4976211;28;20039;-79
2021/11/17 03:07:08;;;;;;;18.50;4.53;;;;;;;15.98;45.45;101982.72;4958731;28;20385;-80
2021/11/17 03:10:01;;;;;;;20.88;5.80;;;;;;;15.93;45.56;101991.94;4942553;28;20445;-79
2021/11/17 03:12:37;;;;;;;12.65;4.50;;;;;;;15.99;45.55;101989.88;4975721;28;20393;-79
2021/11/17 03:15:37;;;;;;;24.60;5.75;;;;;;;16.02;45.52;101987.28;4941766;28;20062;-79
2021/11/17 03:18:41;;;;;;;27.15;7.60;;;;;;;16.14;45.15;101981.16;4958374;28;20037;-80
2021/11/17 03:21:16;;;;;;;18.40;4.65;;;;;;;16.27;44.99;101982.16;4961210;28;20023;-79
2021/11/17 03:24:16;;;;;;;20.02;5.53;;;;;;;16.17;44.88;101985.19;4958385;28;20389;-79
2021/11/17 03:27:22;;;;;;;28.88;7.80;;;;;;;16.45;44.53;101981.03;4960946;28;20018;-79
2021/11/17 03:30:11;;;;;;;18.20;5.47;;;;;;;16.49;44.53;101992.25;4960957;28;20486;-79
2021/11/17 03:32:48;;;;;;;23.27;5.03;;;;;;;16.49;44.74;101990.31;4962406;28;20612;-79
2021/11/17 03:35:20;;;;;;;26.33;5.35;;;;;;;16.20;45.50;101993.66;4958002;28;20034;-80
2021/11/17 03:38:24;;;;;;;20.92;5.40;;;;;;;16.20;45.33;101993.66;4975376;28;20030;-79
2021/11/17 03:41:25;;;;;;;19.08;5.43;;;;;;;16.29;45.39;101991.72;4956220;28;20039;-79
2021/11/17 03:44:09;;;;;;;23.30;4.95;;;;;;;16.13;45.64;101992.50;4877911;29;20041;-79
2021/11/17 03:46:41;;;;;;;36.55;6.75;;;;;;;16.24;45.32;101989.13;4967239;28;20042;-79
2021/11/17 03:49:06;;;;;;;26.98;5.70;;;;;;;16.37;44.88;101992.88;4957593;28;20055;-79
2021/11/17 03:52:15;;;;;;;25.20;4.93;;;;;;;16.61;44.32;101986.91;4957911;28;20035;-80
2021/11/17 03:55:17;;;;;;;19.77;5.13;;;;;;;16.65;44.33;101991.47;4942517;28;20214;-79
2021/11/17 03:57:48;;;;;;;25.95;5.28;;;;;;;16.45;44.76;101985.75;4938846;29;20046;-80
2021/11/17 04:00:33;;;;;;;26.50;6.95;;;;;;;16.34;45.04;101985.25;4970597;28;20027;-80
2021/11/17 04:03:16;;;;;;;25.95;6.72;;;;;;;16.50;44.55;101997.44;4937094;29;20035;-79
2021/11/17 04:05:48;;;;;;;28.17;5.85;;;;;;;16.45;44.65;102011.38;4938404;29;20031;-80
2021/11/17 04:08:26;;;;;;;22.35;5.90;;;;;;;16.48;44.38;102010.75;4955555;29;20486;-80
2021/11/17 04:11:05;;;;;;;20.73;5.68;;;;;;;16.27;44.99;102009.75;4969662;28;20035;-80
2021/11/17 04:13:54;;;;;;;24.60;5.55;;;;;;;16.46;44.54;102010.25;4953946;29;20042;-79
2021/11/17 04:16:28;;;;;;;25.33;6.45;;;;;;;16.33;44.83;102009.28;4949762;28;20047;-80
2021/11/17 04:19:09;;;;;;;22.45;5.90;;;;;;;16.35;44.73;102014.47;4955299;29;20034;-79
2021/11/17 04:21:53;;;;;;;24.55;5.10;;;;;;;16.23;45.02;102015.06;4936812;29;20108;-79
2021/11/17 04:24:44;;;;;;;23.95;5.88;;;;;;;16.33;44.94;102025.00;4952332;29;20070;-79
2021/11/17 04:27:37;;;;;;;25.50;5.80;;;;;;;16.50;44.45;102027.00;4955090;28;20060;-80
2021/11/17 04:30:21;;;;;;;23.48;5.03;;;;;;;16.05;45.43;102030.75;4953892;29;20031;-80
2021/11/17 04:32:52;;;;;;;23.42;5.80;;;;;;;16.14;45.14;102030.78;4955012;29;20118;-79
2021/11/17 04:35:52;;;;;;;25.65;5.75;;;;;;;16.24;44.85;102035.19;4937765;29;20035;-80
2021/11/17 04:38:49;;;;;;;20.38;5.30;;;;;;;15.99;45.72;102040.28;4951237;29;20037;-79
2021/11/17 04:41:18;;;;;;;22.80;5.25;;;;;;;15.93;45.67;102040.75;4950155;28;20047;-80
2021/11/17 04:43:52;;;;;;;23.73;4.90;;;;;;;16.21;45.05;102039.41;4954925;29;20035;-79
2021/11/17 04:46:56;;;;;;;20.30;5.53;;;;;;;16.23;44.88;102041.84;4954824;29;20031;-79
2021/11/17 04:49:32;;;;;;;25.95;6.72;;;;;;;16.24;44.47;102041.50;4936874;29;20046;-79
2021/11/17 04:52:35;;;;;;;28.55;6.13;;;;;;;16.25;44.61;102040.41;4954687;29;20038;-79
2021/11/17 04:55:01;;;;;;;24.08;5.53;;;;;;;16.23;44.40;102047.34;4969624;28;20027;-79
2021/11/17 04:57:38;;;;;;;29.13;5.88;;;;;;;16.26;44.46;102043.97;4937579;29;20047;-80
2021/11/17 05:00:22;;;;;;;21.67;5.90;;;;;;;16.25;44.51;102045.09;4969679;28;20045;-79
2021/11/17 05:03:23;;;;;;;23.98;5.68;;;;;;;16.03;44.82;102048.75;4937320;29;20038;-79
2021/11/17 05:05:48;;;;;;;20.20;5.03;;;;;;;16.18;44.42;102051.09;4938574;29;20550;-80
2021/11/17 05:08:32;;;;;;;23.80;7.82;;;;;;;16.14;44.50;102050.09;4954834;29;20159;-80
2021/11/17 05:11:03;;;;;;;22.05;4.88;;;;;;;15.65;45.79;102064.94;4955157;29;20031;-80
2021/11/17 05:14:00;;;;;;;28.17;6.13;;;;;;;15.79;45.35;102071.16;4954514;29;20038;-79
2021/11/17 05:16:38;;;;;;;21.75;5.32;;;;;;;16.09;44.70;102064.81;4951112;29;20058;-79
2021/11/17 05:19:37;;;;;;;23.48;5.38;;;;;;;15.89;44.90;102075.59;4969582;28;20037;-80
2021/11/17 05:22:08;;;;;;;18.75;5.30;;;;;;;15.91;45.21;102067.81;4954639;29;20426;-79
2021/11/17 05:24:34;;;;;;;21.98;4.30;;;;;;;15.78;45.51;102069.53;4969465;28;20030;-79
2021/11/17 05:27:05;;;;;;;25.58;7.38;;;;;;;16.00;44.99;102061.22;4937507;29;20458;-80
2021/11/17 05:30:13;;;;;;;28.55;4.57;;;;;;;15.95;44.82;102058.63;4937667;29;20054;-79
2021/11/17 05:32:47;;;;;;;22.60;6.82;;;;;;;15.91;45.18;102062.31;4937593;29;20035;-79
2021/11/17 05:35:13;;;;;;;15.57;3.90;;;;;;;15.76;45.63;102055.25;4954466;29;20033;-79
2021/11/17 05:38:13;;;;;;;15.88;5.03;;;;;;;15.82;45.40;102059.50;4937916;29;20035;-80
2021/11/17 05:41:11;;;;;;;21.52;4.68;;;;;;;16.02;44.72;102055.38;4941433;29;20071;-79
2021/11/17 05:43:58;;;;;;;25.13;6.00;;;;;;;15.88;45.08;102041.72;4941381;29;20038;-79
2021/11/17 05:46:48;;;;;;;21.05;6.28;;;;;;;16.04;44.49;102051.19;4971960;28;20036;-79
2021/11/17 05:49:24;;;;;;;18.90;5.47;;;;;;;16.11;44.54;102052.69;4957952;29;20051;-79
2021/11/17 05:52:09;;;;;;;16.63;4.70;;;;;;;15.89;45.13;102059.88;4972867;28;20039;-78
2021/11/17 05:54:46;;;;;;;19.25;4.43;;;;;;;15.89;44.73;102057.13;4971950;28;20118;-79
2021/11/17 05:57:22;;;;;;;14.27;4.13;;;;;;;15.88;44.84;102055.50;4971643;28;20032;-78
2021/11/17 06:00:05;;;;;;;20.98;5.65;;;;;;;15.88;44.81;102052.75;4972688;28;20038;-79
2021/11/17 06:02:47;;;;;;;23.25;4.88;;;;;;;15.97;44.64;102052.78;4940504;29;20031;-78
2021/11/17 06:05:12;;;;;;;23.85;5.45;;;;;;;16.08;44.35;102068.72;4940060;29;20507;-78
2021/11/17 06:07:37;;;;;;;17.85;6.72;;;;;;;15.99;44.29;102075.31;4957645;29;20031;-78
2021/11/17 06:10:22;;;;;;;17.42;5.18;;;;;;;15.98;44.18;102068.19;4957645;29;20074;-78
2021/11/17 06:12:48;;;;;;;45.50;6.65;;;;;;;16.04;44.12;102073.25;4957553;29;20031;-79
2021/11/17 06:15:16;;;;;;;24.38;6.22;;;;;;;16.00;44.35;102076.94;4958135;29;20134;-79
2021/11/17 06:17:44;;;;;;;23.17;6.00;;;;;;;15.96;44.60;102093.31;4957904;29;20036;-79
2021/11/17 06:20:12;;;;;;;25.25;5.00;;;;;;;16.10;44.26;102093.22;4957551;29;20031;-79
2021/11/17 06:22:42;;;;;;;20.55;4.63;;;;;;;15.88;44.48;102094.09;4940222;29;20443;-79
2021/11/17 06:25:09;;;;;;;;;;;;;;;16.02;44.44;102085.69;4958074;29;20041;-78
2021/11/17 06:27:39;;;;;;;24.98;5.97;;;;;;;16.04;43.82;102086.22;4957334;29;19958;-78
2021/11/17 06:30:05;;;;;;;;;;;;;;;16.12;44.17;102093.72;4957777;29;20118;-79
2021/11/17 06:32:31;;;;;;;26.75;5.80;;;;;;;16.24;44.01;102084.81;4957356;29;20385;-78
2021/11/17 06:35:00;;;;;;;22.23;6.10;;;;;;;16.21;44.07;102074.44;4957272;29;20039;-79
2021/11/17 06:37:29;;;;;;;26.10;6.53;;;;;;;16.25;43.94;102092.00;4957012;29;20035;-78
2021/11/17 06:39:58;;;;;;;27.67;5.28;;;;;;;16.34;43.98;102096.41;4939935;29;20035;-78
2021/11/17 06:42:41;;;;;;;18.13;5.32;;;;;;;16.33;43.91;102096.72;4939827;29;20023;-78
2021/11/17 06:45:14;;;;;;;22.98;5.78;;;;;;;16.31;43.91;102096.22;4957318;29;20035;-79
2021/11/17 06:47:40;;;;;;;16.20;3.75;;;;;;;16.33;44.11;102097.53;4957147;29;20031;-78
2021/11/17 06:50:06;;;;;;;24.88;5.57;;;;;;;16.29;44.43;102091.00;4956819;28;20379;-80
2021/11/17 06:52:32;;;;;;;24.73;4.75;;;;;;;16.21;44.55;102097.31;4958292;28;20042;-79
2021/11/17 06:54:57;;;;;;;24.10;5.95;;;;;;;16.20;44.39;102100.41;4958542;28;20097;-81
2021/11/17 06:57:23;;;;;;;24.45;5.65;;;;;;;16.31;44.60;102093.44;4975709;28;20069;-80
2021/11/17 06:59:49;;;;;;;19.33;3.88;;;;;;;16.07;44.78;102088.31;4976045;28;20031;-80
2021/11/17 07:02:16;;;;;;;16.17;4.65;;;;;;;16.28;44.22;102096.84;4958631;28;20034;-80
2021/11/17 07:04:42;;;;;;;27.88;5.82;;;;;;;16.08;44.97;102104.53;4975374;28;20026;-80
2021/11/17 07:07:10;;;;;;;28.23;4.97;;;;;;;15.96;45.40;102109.84;4975772;28;20023;-80
2021/11/17 07:09:36;;;;;;;22.05;6.70;;;;;;;15.93;45.34;102102.19;4975791;28;20031;-79
2021/11/17 07:12:03;;;;;;;18.90;4.47;;;;;;;15.77;45.63;102110.06;4975796;28;20038;-80
2021/11/17 07:14:30;;;;;;;11.48;4.07;;;;;;;16.02;44.88;102107.75;4975688;28;20559;-80
2021/11/17 07:16:57;;;;;;;30.40;6.63;;;;;;;16.28;44.39;102107.88;4958468;28;20023;-79
2021/11/17 07:19:26;;;;;;;27.90;7.57;;;;;;;16.31;44.32;102108.06;4958439;28;20568;-79
2021/11/17 07:22:00;;;;;;;24.20;5.82;;;;;;;16.35;43.80;102111.00;4975809;28;20022;-78
2021/11/17 07:24:29;;;;;;;28.23;6.50;;;;;;;16.42;44.12;102121.56;4975571;28;20042;-79
2021/11/17 07:26:56;;;;;;;17.50;5.18;;;;;;;16.41;43.77;102126.28;4975660;28;20393;-80
2021/11/17 07:29:23;;;;;;;16.70;5.85;;;;;;;16.33;44.19;102124.31;4957793;28;20129;-79
2021/11/17 07:31:49;;;;;;;21.73;4.68;;;;;;;16.41;44.02;102129.03;4975594;28;20425;-79
2021/11/17 07:34:15;;;;;;;21.75;4.57;;;;;;;16.17;44.36;102132.19;4990553;28;20046;-78
2021/11/17 07:36:42;;;;;;;33.67;6.45;;;;;;;16.48;43.61;102142.38;4975791;28;20151;-79
2021/11/17 07:39:13;;;;;;;22.20;4.30;;;;;;;16.34;44.40;102145.25;4975658;28;20074;-79
2021/11/17 07:41:40;;;;;;;23.85;5.35;;;;;;;16.46;43.67;102136.34;4975860;28;20027;-79
2021/11/17 07:44:07;;;;;;;20.55;4.50;;;;;;;16.38;43.68;102132.41;4975364;28;20056;-78
2021/11/17 07:46:33;;;;;;;22.58;5.03;;;;;;;16.27;44.23;102120.88;4975196;28;20023;-79
2021/11/17 07:48:58;;;;;;;21.35;5.22;;;;;;;16.25;44.16;102128.66;4957564;28;20057;-78
2021/11/17 07:51:25;;;;;;;20.75;4.75;;;;;;;16.27;44.18;102139.38;4957804;28;20043;-79
2021/11/17 07:53:50;;;;;;;18.33;4.55;;;;;;;16.09;44.51;102142.00;4975035;28;20027;-79
2021/11/17 07:56:16;;;;;;;15.23;4.40;;;;;;;16.18;44.41;102144.03;4975070;28;20035;-79
2021/11/17 07:58:45;;;;;;;22.15;4.95;;;;;;;16.13;44.42;102149.66;4990102;28;20114;-77
2021/11/17 08:01:12;;;;;;;22.80;5.40;;;;;;;16.20;44.45;102158.31;4974609;28;20030;-79
2021/11/17 08:03:40;;;;;;;17.30;4.75;;;;;;;16.08;44.48;102164.41;4989867;28;20486;-80
2021/11/17 08:06:09;;;;;;;28.35;4.72;;;;;;;16.18;44.01;102179.88;4957438;28;20405;-80
2021/11/17 08:08:36;;;;;;;20.98;5.28;;;;;;;16.33;43.38;102185.81;4974826;28;20027;-79
2021/11/17 08:11:03;;;;;;;19.95;5.03;;;;;;;16.44;43.31;102185.50;4974947;28;20026;-79
2021/11/17 08:13:29;;;;;;;18.17;4.53;;;;;;;16.44;43.68;102189.09;4974646;28;20019;-80
2021/11/17 08:15:56;;;;;;;17.50;3.72;;;;;;;16.42;43.52;102183.06;4974841;28;20101;-81
2021/11/17 08:18:22;;;;;;;32.35;6.57;;;;;;;16.33;43.70;102193.25;4957349;28;20080;-81
2021/11/17 08:20:48;;;;;;;19.67;4.90;;;;;;;16.04;44.80;102193.75;4974645;28;20038;-80
2021/11/17 08:23:13;;;;;;;23.75;5.90;;;;;;;16.26;44.24;102206.69;4974198;28;20027;-80
2021/11/17 08:25:40;;;;;;;22.23;5.32;;;;;;;16.51;43.80;102208.75;4972323;28;20035;-79
2021/11/17 08:28:11;;;;;;;19.52;4.78;;;;;;;16.32;44.48;102208.16;4989285;28;20500;-79
2021/11/17 08:30:37;;;;;;;24.98;5.32;;;;;;;16.56;43.89;102230.69;4974468;28;20037;-81
2021/11/17 08:33:05;;;;;;;23.25;4.97;;;;;;;16.72;43.65;102217.31;4956989;28;20048;-79
2021/11/17 08:35:31;;;;;;;19.52;4.03;;;;;;;16.92;43.49;102222.25;4974258;28;20683;-79
2021/11/17 08:37:58;;;;;;;17.48;5.95;;;;;;;16.82;43.38;102221.75;4973254;28;20031;-79
2021/11/17 08:40:27;;;;;;;25.40;5.85;;;;;;;16.86;43.57;102219.97;4973254;28;20026;-79
2021/11/17 08:42:54;;;;;;;25.50;6.07;;;;;;;16.53;44.41;102212.00;4973561;28;20431;-79
2021/11/17 08:45:22;;;;;;;16.45;4.72;;;;;;;16.65;43.97;102195.66;4956472;28;20552;-78
2021/11/17 08:47:50;;;;;;;19.98;4.63;;;;;;;16.86;43.65;102184.09;4988683;28;20030;-80
2021/11/17 08:50:20;;;;;;;22.67;6.22;;;;;;;16.67;44.22;102194.53;4953435;29;20119;-80
2021/11/17 08:52:48;;;;;;;20.08;4.38;;;;;;;16.82;43.96;102194.13;4954527;28;20110;-78
2021/11/17 08:55:14;;;;;;;24.70;5.93;;;;;;;16.87;43.72;102194.00;4953620;29;20023;-78
2021/11/17 08:57:41;;;;;;;20.05;4.47;;;;;;;16.87;43.78;102188.47;4954772;28;20086;-81
2021/11/17 09:00:10;;;;;;;15.48;4.03;;;;;;;16.81;44.16;102198.03;4954816;28;20546;-80
2021/11/17 09:02:40;;;;;;;19.67;4.07;;;;;;;16.95;44.05;102200.69;4954753;28;20027;-79
2021/11/17 09:05:13;;;;;;;20.80;4.53;;;;;;;17.07;43.70;102198.91;4954728;28;20106;-79
2021/11/17 09:07:42;;;;;;;19.58;6.22;;;;;;;16.92;44.37;102193.81;4950659;28;20118;-79
2021/11/17 09:10:20;;;;;;;22.95;6.15;;;;;;;16.92;44.35;102200.16;4953180;28;20430;-78
2021/11/17 09:12:47;;;;;;;18.88;5.40;;;;;;;17.12;43.98;102196.00;4953638;28;20050;-81
2021/11/17 09:15:15;;;;;;;16.45;5.00;;;;;;;16.85;44.59;102201.75;4952913;28;20034;-80
2021/11/17 09:17:42;;;;;;;21.45;4.82;;;;;;;16.91;44.44;102206.00;4954387;28;20050;-79
2021/11/17 09:20:09;;;;;;;19.60;4.68;;;;;;;17.08;44.30;102211.59;4954189;28;20029;-82
2021/11/17 09:22:36;;;;;;;15.15;4.55;;;;;;;17.20;43.87;102211.75;4954377;28;20449;-79
2021/11/17 09:25:03;;;;;;;21.38;4.38;;;;;;;17.25;43.76;102212.75;4953875;28;20437;-79
2021/11/17 09:27:29;;;;;;;24.23;4.95;;;;;;;17.10;44.09;102217.59;4953989;28;20046;-81
2021/11/17 09:29:55;;;;;;;26.77;5.15;;;;;;;17.15;44.32;102211.94;4954285;29;20031;-81
2021/11/17 09:32:22;;;;;;;15.68;4.10;;;;;;;17.38;43.93;102228.34;4954257;28;20028;-79
2021/11/17 09:34:48;;;;;;;19.67;4.82;;;;;;;17.13;44.76;102219.72;4954263;28;20039;-79
2021/11/17 09:37:14;;;;;;;20.83;5.30;;;;;;;17.46;44.05;102230.34;4954210;28;20034;-83
2021/11/17 09:39:42;;;;;;;17.42;4.28;;;;;;;17.33;44.59;102223.00;4954280;28;20106;-83
2021/11/17 09:42:10;;;;;;;22.10;4.68;;;;;;;17.49;44.43;102224.16;4953837;28;20031;-79
2021/11/17 09:44:43;;;;;;;22.35;6.03;;;;;;;17.87;43.57;102221.59;4952706;28;20470;-79
2021/11/17 09:47:13;;;;;;;26.00;4.80;;;;;;;17.47;44.23;102209.88;4953156;28;20054;-79
2021/11/17 09:49:38;;;;;;;;;;;;;;;17.71;43.98;102220.47;4959015;28;20047;-79
2021/11/17 09:52:09;;;;;;;21.35;4.45;;;;;;;18.09;43.08;102226.13;4971517;28;19972;-79
2021/11/17 09:54:43;;;;;;;23.90;5.68;;;;;;;17.93;42.90;102222.25;4971601;28;20047;-79
2021/11/17 09:57:19;;;;;;;25.73;4.50;;;;;;;17.73;43.50;102227.28;4971489;28;20023;-79
2021/11/17 10:00:01;;;;;;;19.92;6.00;;;;;;;18.02;43.05;102228.56;4971195;28;20022;-80
2021/11/17 10:02:47;;;;;;;18.88;4.78;;;;;;;18.30;42.37;102235.34;4971481;28;20059;-79
2021/11/17 10:13:47;;;;;;;20.48;4.70;;;;;;;18.56;42.08;102226.16;4953072;29;20031;-80
2021/11/17 10:16:13;;;;;;;13.95;3.30;;;;;;;18.62;41.99;102235.09;4952167;29;20477;-81
2021/11/17 10:18:43;;;;;;;20.45;5.15;;;;;;;18.55;42.14;102225.34;4955267;28;20023;-81
2021/11/17 10:21:11;;;;;;;24.40;6.50;;;;;;;18.34;42.29;102235.50;4952561;29;20114;-83
2021/11/17 10:23:43;;;;;;;16.27;4.55;;;;;;;18.45;42.03;102247.84;4953579;28;20394;-83
2021/11/17 10:26:12;;;;;;;17.95;3.67;;;;;;;18.53;41.75;102252.56;4955583;29;20031;-80
2021/11/17 10:29:01;;;;;;;25.40;5.85;;;;;;;18.47;41.80;102261.34;4957009;29;20043;-83
2021/11/17 10:32:04;;;;;;;16.35;3.88;;;;;;;18.61;41.57;102256.44;4954848;29;20115;-82
2021/11/17 10:34:31;;;;;;;18.40;4.10;;;;;;;18.52;41.82;102261.19;4956659;29;20023;-81
2021/11/17 10:37:29;;;;;;;21.10;4.93;;;;;;;18.60;41.56;102263.13;4956520;28;20023;-84
2021/11/17 10:39:55;;;;;;;32.72;7.85;;;;;;;18.56;41.55;102275.97;4953024;29;20410;-82
2021/11/17 10:42:20;;;;;;;18.13;3.67;;;;;;;18.56;41.66;102281.50;4955330;29;20027;-83
2021/11/17 10:45:19;;;;;;;20.27;4.35;;;;;;;18.61;41.49;102270.28;4955357;29;20023;-81
2021/11/17 10:47:50;;;;;;;18.88;4.30;;;;;;;18.60;41.76;102279.72;4954570;29;20508;-82
2021/11/17 10:50:39;;;;;;;27.38;4.82;;;;;;;18.70;41.45;102287.69;4953276;29;20050;-82
2021/11/17 10:53:26;;;;;;;19.30;4.10;;;;;;;18.64;41.54;102286.22;4956279;29;20099;-80
2021/11/17 10:55:55;;;;;;;15.60;4.45;;;;;;;18.61;41.46;102284.13;4956272;28;20051;-81
2021/11/17 10:58:23;;;;;;;24.83;5.38;;;;;;;18.63;41.64;102287.34;4956219;29;20382;-82
2021/11/17 11:00:58;;;;;;;16.23;4.45;;;;;;;18.71;41.33;102289.31;4954791;29;20501;-81
2021/11/17 11:03:27;;;;;;;22.00;5.25;;;;;;;18.64;41.54;102286.22;4956324;28;20385;-81
2021/11/17 11:06:18;;;;;;;16.67;4.28;;;;;;;18.62;41.43;102288.50;4953492;28;20114;-82
2021/11/17 11:08:50;;;;;;;12.52;3.05;;;;;;;18.69;41.52;102276.97;4943945;29;20046;-80
2021/11/17 11:11:16;;;;;;;23.20;4.85;;;;;;;18.74;41.55;102274.81;4956700;28;20058;-80
2021/11/17 11:13:48;;;;;;;23.27;5.05;;;;;;;18.84;41.34;102274.44;4956418;28;20049;-80
2021/11/17 11:16:23;;;;;;;23.38;6.40;;;;;;;18.90;41.60;102275.09;4956273;28;20023;-81
2021/11/17 11:19:15;;;;;;;18.33;4.40;;;;;;;18.86;41.29;102285.19;4953401;29;20363;-81
2021/11/17 11:21:43;;;;;;;19.80;5.00;;;;;;;19.06;40.96;102281.69;4955728;29;20019;-82
2021/11/17 11:24:30;;;;;;;16.52;4.50;;;;;;;18.95;41.35;102287.91;4955936;29;20478;-83
2021/11/17 11:26:59;;;;;;;17.02;4.25;;;;;;;19.06;41.26;102291.97;4955550;29;20051;-84
2021/11/17 11:29:29;;;;;;;17.33;4.82;;;;;;;19.01;41.30;102281.06;4956020;28;20019;-81
2021/11/17 11:32:19;;;;;;;25.70;6.22;;;;;;;19.00;41.48;102274.69;4954593;29;20034;-82
2021/11/17 11:35:08;;;;;;;20.00;5.35;;;;;;;19.04;41.39;102270.13;4949446;29;20126;-81
2021/11/17 11:37:33;;;;;;;20.67;4.53;;;;;;;18.93;41.61;102268.06;4954558;28;20533;-80
2021/11/17 11:40:10;;;;;;;19.23;5.43;;;;;;;18.99;41.53;102273.09;4954081;28;20107;-79
2021/11/17 11:42:58;;;;;;;21.73;4.80;;;;;;;18.88;41.78;102269.03;4954870;28;20023;-83
2021/11/17 11:45:26;;;;;;;19.13;5.03;;;;;;;19.02;41.67;102257.75;4955462;28;20038;-79
2021/11/17 11:48:03;;;;;;;35.33;9.40;;;;;;;19.03;41.64;102262.94;4955421;29;20051;-80
2021/11/17 11:50:32;;;;;;;19.33;5.07;;;;;;;18.90;41.71;102255.69;4967129;28;20659;-81
2021/11/17 11:53:22;;;;;;;16.70;5.28;;;;;;;19.05;41.61;102257.91;4973000;28;20054;-78
2021/11/17 11:55:51;;;;;;;16.80;4.18;;;;;;;19.03;41.72;102251.06;4972599;28;20046;-78
2021/11/17 11:58:24;;;;;;;32.03;7.17;;;;;;;18.72;42.41;102248.59;4955848;28;20481;-78
2021/11/17 12:01:09;;;;;;;16.73;4.65;;;;;;;18.94;42.29;102253.06;4956793;28;20477;-78
2021/11/17 12:03:43;;;;;;;23.77;5.22;;;;;;;18.86;41.98;102260.25;4973877;28;20038;-78
2021/11/17 12:06:14;;;;;;;22.15;5.93;;;;;;;18.64;42.09;102254.94;4973997;28;20033;-77
2021/11/17 12:08:49;;;;;;;16.27;4.55;;;;;;;18.92;41.25;102261.72;4974722;28;20050;-77
2021/11/17 12:11:19;;;;;;;20.83;4.55;;;;;;;18.94;41.50;102253.06;4974845;28;20015;-78
2021/11/17 12:13:58;;;;;;;21.60;5.95;;;;;;;18.95;41.49;102257.44;4974649;28;20034;-77
2021/11/17 12:16:32;;;;;;;22.98;6.10;;;;;;;19.27;40.93;102250.41;4974701;28;20485;-78
2021/11/17 12:18:57;;;;;;;21.20;5.22;;;;;;;19.23;40.97;102250.28;4974630;28;20034;-79
2021/11/17 12:21:40;;;;;;;13.60;4.28;;;;;;;19.36;40.72;102245.66;4973168;28;20386;-82
2021/11/17 12:24:13;;;;;;;13.55;4.47;;;;;;;19.36;40.75;102256.75;4973061;28;20026;-79
2021/11/17 12:26:46;;;;;;;16.33;3.63;;;;;;;19.40;40.77;102247.41;4974468;28;20031;-80
2021/11/17 12:29:22;;;;;;;22.63;4.05;;;;;;;19.54;40.62;102249.09;4974043;28;20034;-81
2021/11/17 12:32:15;;;;;;;19.33;5.47;;;;;;;19.47;40.68;102254.38;4974226;28;20027;-81
2021/11/17 12:34:57;;;;;;;17.38;6.28;;;;;;;19.49;40.71;102249.31;4974366;28;20054;-79
2021/11/17 12:37:31;;;;;;;23.83;6.30;;;;;;;19.32;40.89;102250.25;4973735;28;20026;-81
2021/11/17 12:40:14;;;;;;;16.20;4.40;;;;;;;19.43;40.79;102248.72;4973888;28;20027;-83
2021/11/17 12:42:53;;;;;;;27.13;5.80;;;;;;;19.44;40.98;102249.53;4973936;28;20093;-83
2021/11/17 12:45:30;;;;;;;20.27;5.28;;;;;;;19.53;40.89;102248.31;4973768;28;20030;-79
2021/11/17 12:48:00;;;;;;;14.50;4.35;;;;;;;19.47;40.71;102237.75;4970539;28;20489;-79
2021/11/17 12:50:35;;;;;;;15.65;4.05;;;;;;;19.11;41.63;102253.78;4973484;28;20047;-82
2021/11/17 12:53:07;;;;;;;14.77;4.97;;;;;;;19.36;41.22;102243.69;4973747;28;20054;-79
2021/11/17 12:55:55;;;;;;;17.60;4.75;;;;;;;19.37;40.96;102236.19;4956200;28;20023;-81
2021/11/17 12:58:38;;;;;;;18.45;4.75;;;;;;;19.57;40.58;102254.84;4987801;28;20030;-83
2021/11/17 13:01:09;;;;;;;20.15;4.75;;;;;;;19.34;41.29;102251.50;4973541;28;20030;-80
2021/11/17 13:03:55;;;;;;;19.73;5.43;;;;;;;19.61;40.64;102250.22;4973412;28;20088;-79
2021/11/17 13:06:28;;;;;;;19.10;4.03;;;;;;;19.50;40.91;102259.28;4973493;28;20444;-79
2021/11/17 13:09:23;;;;;;;19.15;4.53;;;;;;;19.72;40.86;102258.13;4973867;28;20027;-81
2021/11/17 13:11:53;;;;;;;21.70;4.38;;;;;;;19.86;40.52;102270.56;4973649;28;20117;-82
2021/11/17 13:14:31;;;;;;;18.70;4.95;;;;;;;19.74;40.85;102266.94;4973120;28;20058;-81
2021/11/17 13:17:17;;;;;;;19.95;4.15;;;;;;;20.00;40.51;102264.75;4969929;28;20117;-83
2021/11/17 13:19:51;;;;;;;17.45;4.75;;;;;;;19.60;41.39;102254.16;4967146;28;20102;-81
2021/11/17 13:22:31;;;;;;;21.48;5.97;;;;;;;19.89;40.64;102247.72;4975051;28;20027;-81
2021/11/17 13:25:21;;;;;;;23.67;5.50;;;;;;;19.87;40.40;102241.69;4970865;28;20056;-79
2021/11/17 13:27:50;;;;;;;17.02;4.40;;;;;;;19.73;40.86;102252.25;4972124;28;20082;-83
2021/11/17 13:30:31;;;;;;;9.30;3.17;;;;;;;20.04;40.15;102239.91;4973465;28;20426;-81
2021/11/17 13:32:58;;;;;;;15.10;3.45;;;;;;;20.05;40.35;102236.00;4973761;28;20433;-78
2021/11/17 13:35:36;;;;;;;12.25;3.28;;;;;;;20.06;40.23;102232.88;4973175;28;20038;-81
2021/11/17 13:38:17;;;;;;;12.85;4.07;;;;;;;19.92;40.30;102233.16;4973311;28;20034;-79
2021/11/17 13:40:48;;;;;;;16.55;3.88;;;;;;;19.64;40.77;102232.09;4956071;28;20034;-78
2021/11/17 13:43:14;;;;;;;14.55;4.57;;;;;;;19.74;40.63;102233.66;4973320;28;20023;-80
2021/11/17 13:45:42;;;;;;;21.83;5.60;;;;;;;19.98;40.33;102222.66;4972976;28;20023;-80
2021/11/17 13:48:08;;;;;;;14.95;3.60;;;;;;;20.03;40.19;102227.19;4955762;28;20117;-80
2021/11/17 13:50:37;;;;;;;15.88;3.95;;;;;;;19.76;41.05;102228.59;4972666;28;20146;-81
2021/11/17 13:53:05;;;;;;;16.45;4.22;;;;;;;19.93;40.60;102222.88;4973094;28;20058;-83
2021/11/17 13:55:34;;;;;;;13.70;3.58;;;;;;;19.96;40.52;102219.44;4973264;28;20469;-85
2021/11/17 13:58:02;;;;;;;12.68;4.22;;;;;;;20.11;40.24;102218.78;4973269;28;20031;-81
2021/11/17 14:00:28;;;;;;;22.67;5.75;;;;;;;20.22;40.06;102219.97;4976863;28;20034;-84
2021/11/17 14:02:54;;;;;;;18.00;7.28;;;;;;;20.08;40.22;102226.97;4976674;28;20031;-79
2021/11/17 14:05:21;;;;;;;15.07;5.15;;;;;;;19.95;40.40;102220.59;4976877;28;20031;-78
2021/11/17 14:07:48;;;;;;;20.83;7.75;;;;;;;20.28;39.85;102219.75;4959598;28;20034;-79
2021/11/17 14:10:17;;;;;;;13.43;3.67;;;;;;;20.36;39.78;102218.84;4976978;28;20030;-81
2021/11/17 14:12:43;;;;;;;12.60;3.40;;;;;;;20.24;40.08;102228.75;4958961;28;20031;-82
2021/11/17 14:15:09;;;;;;;17.92;4.68;;;;;;;19.97;40.58;102221.06;4958848;28;20466;-80
2021/11/17 14:17:35;;;;;;;23.92;6.45;;;;;;;20.23;40.01;102223.53;4956319;28;20043;-81
2021/11/17 14:20:04;;;;;;;9.20;3.08;;;;;;;20.04;40.10;102229.63;4970862;28;20109;-78
2021/11/17 14:22:30;;;;;;;11.82;3.38;;;;;;;19.89;40.17;102233.84;4975260;28;20143;-80
2021/11/17 14:25:01;;;;;;;15.13;5.00;;;;;;;19.67;40.70;102231.44;4996384;28;20043;-79
2021/11/17 14:27:29;;;;;;;18.35;4.13;;;;;;;19.85;40.26;102235.66;4974251;28;20509;-79